sensor_id;sensor_type;location;lat;lon;timestamp;P1;durP1;ratioP1;P2;durP2;ratioP2
19810;SDS011;10065;49.632;8.346;2022-12-18T00:01:23;47.40;;;18.03;;
19810;SDS011;10065;49.632;8.346;2022-12-18T00:03:52;48.43;;;19.57;;
19810;SDS011;10065;49.632;8.346;2022-12-18T00:06:24;52.97;;;18.27;;
19810;SDS011;10065;49.632;8.346;2022-12-18T00:08:54;48.23;;;17.87;;
19810;SDS011;10065;49.632;8.346;2022-12-18T00:11:24;49.47;;;17.80;;
19810;SDS011;10065;49.632;8.346;2022-12-18T00:13:55;46.93;;;16.77;;
19810;SDS011;10065;49.632;8.346;2022-12-18T00:16:25;41.70;;;15.97;;
19810;SDS011;10065;49.632;8.346;2022-12-18T00:18:54;48.67;;;17.53;;
19810;SDS011;10065;49.632;8.346;2022-12-18T00:21:27;52.97;;;17.63;;
19810;SDS011;10065;49.632;8.346;2022-12-18T00:23:56;51.50;;;18.20;;
19810;SDS011;10065;49.632;8.346;2022-12-18T00:26:27;46.07;;;17.40;;
19810;SDS011;10065;49.632;8.346;2022-12-18T00:28:57;56.17;;;18.93;;
19810;SDS011;10065;49.632;8.346;2022-12-18T00:31:26;53.57;;;17.10;;
19810;SDS011;10065;49.632;8.346;2022-12-18T00:33:54;47.20;;;17.47;;
19810;SDS011;10065;49.632;8.346;2022-12-18T00:36:24;48.70;;;17.63;;
19810;SDS011;10065;49.632;8.346;2022-12-18T00:38:52;44.97;;;15.70;;
19810;SDS011;10065;49.632;8.346;2022-12-18T00:41:21;44.23;;;15.67;;
19810;SDS011;10065;49.632;8.346;2022-12-18T00:44:09;42.83;;;15.47;;
19810;SDS011;10065;49.632;8.346;2022-12-18T00:46:38;37.43;;;15.13;;
19810;SDS011;10065;49.632;8.346;2022-12-18T00:49:06;41.83;;;15.00;;
19810;SDS011;10065;49.632;8.346;2022-12-18T00:51:34;46.17;;;15.23;;
19810;SDS011;10065;49.632;8.346;2022-12-18T00:54:02;36.70;;;14.10;;
19810;SDS011;10065;49.632;8.346;2022-12-18T00:56:30;39.97;;;14.87;;
19810;SDS011;10065;49.632;8.346;2022-12-18T00:58:58;39.07;;;14.20;;
19810;SDS011;10065;49.632;8.346;2022-12-18T01:01:27;33.43;;;13.30;;
19810;SDS011;10065;49.632;8.346;2022-12-18T01:03:55;36.20;;;14.77;;
19810;SDS011;10065;49.632;8.346;2022-12-18T01:06:29;37.60;;;13.90;;
19810;SDS011;10065;49.632;8.346;2022-12-18T01:08:59;35.80;;;13.87;;
19810;SDS011;10065;49.632;8.346;2022-12-18T01:11:27;40.83;;;14.87;;
19810;SDS011;10065;49.632;8.346;2022-12-18T01:14:00;41.23;;;14.43;;
19810;SDS011;10065;49.632;8.346;2022-12-18T01:16:29;40.27;;;14.80;;
19810;SDS011;10065;49.632;8.346;2022-12-18T01:18:59;33.83;;;13.57;;
19810;SDS011;10065;49.632;8.346;2022-12-18T01:21:26;39.17;;;14.67;;
19810;SDS011;10065;49.632;8.346;2022-12-18T01:23:55;40.10;;;14.70;;
19810;SDS011;10065;49.632;8.346;2022-12-18T01:26:24;43.33;;;15.90;;
19810;SDS011;10065;49.632;8.346;2022-12-18T01:28:56;38.83;;;15.17;;
19810;SDS011;10065;49.632;8.346;2022-12-18T01:31:25;45.97;;;16.50;;
19810;SDS011;10065;49.632;8.346;2022-12-18T01:33:55;39.80;;;15.43;;
19810;SDS011;10065;49.632;8.346;2022-12-18T01:36:24;41.13;;;15.13;;
19810;SDS011;10065;49.632;8.346;2022-12-18T01:38:53;45.97;;;16.47;;
19810;SDS011;10065;49.632;8.346;2022-12-18T01:41:22;46.30;;;15.90;;
19810;SDS011;10065;49.632;8.346;2022-12-18T01:43:52;46.17;;;17.17;;
19810;SDS011;10065;49.632;8.346;2022-12-18T01:46:21;43.60;;;16.00;;
19810;SDS011;10065;49.632;8.346;2022-12-18T01:48:54;42.97;;;15.63;;
19810;SDS011;10065;49.632;8.346;2022-12-18T01:51:25;42.87;;;15.07;;
19810;SDS011;10065;49.632;8.346;2022-12-18T01:53:54;40.37;;;15.57;;
19810;SDS011;10065;49.632;8.346;2022-12-18T01:56:22;46.53;;;16.57;;
19810;SDS011;10065;49.632;8.346;2022-12-18T01:58:52;42.03;;;16.17;;
19810;SDS011;10065;49.632;8.346;2022-12-18T02:01:22;48.70;;;16.90;;
19810;SDS011;10065;49.632;8.346;2022-12-18T02:03:51;54.90;;;17.27;;
19810;SDS011;10065;49.632;8.346;2022-12-18T02:06:21;47.90;;;16.30;;
19810;SDS011;10065;49.632;8.346;2022-12-18T02:09:02;47.17;;;18.17;;
19810;SDS011;10065;49.632;8.346;2022-12-18T02:11:39;44.13;;;15.27;;
19810;SDS011;10065;49.632;8.346;2022-12-18T02:14:17;45.70;;;15.33;;
19810;SDS011;10065;49.632;8.346;2022-12-18T02:16:52;47.37;;;17.27;;
19810;SDS011;10065;49.632;8.346;2022-12-18T02:19:34;44.23;;;16.90;;
19810;SDS011;10065;49.632;8.346;2022-12-18T02:22:21;40.47;;;15.87;;
19810;SDS011;10065;49.632;8.346;2022-12-18T02:24:59;48.80;;;16.43;;
19810;SDS011;10065;49.632;8.346;2022-12-18T02:27:39;49.50;;;17.33;;
19810;SDS011;10065;49.632;8.346;2022-12-18T02:30:09;43.60;;;15.93;;
19810;SDS011;10065;49.632;8.346;2022-12-18T02:32:38;43.40;;;15.77;;
19810;SDS011;10065;49.632;8.346;2022-12-18T02:35:13;54.37;;;17.77;;
19810;SDS011;10065;49.632;8.346;2022-12-18T02:37:44;48.90;;;16.77;;
19810;SDS011;10065;49.632;8.346;2022-12-18T02:40:14;45.60;;;18.23;;
19810;SDS011;10065;49.632;8.346;2022-12-18T02:42:46;44.43;;;15.30;;
19810;SDS011;10065;49.632;8.346;2022-12-18T02:45:13;49.90;;;17.43;;
19810;SDS011;10065;49.632;8.346;2022-12-18T02:47:46;45.40;;;15.77;;
19810;SDS011;10065;49.632;8.346;2022-12-18T02:50:19;46.87;;;18.07;;
19810;SDS011;10065;49.632;8.346;2022-12-18T02:52:56;45.63;;;16.57;;
19810;SDS011;10065;49.632;8.346;2022-12-18T02:55:36;46.00;;;17.40;;
19810;SDS011;10065;49.632;8.346;2022-12-18T02:58:17;39.03;;;15.83;;
19810;SDS011;10065;49.632;8.346;2022-12-18T03:00:48;46.03;;;17.93;;
19810;SDS011;10065;49.632;8.346;2022-12-18T03:03:23;49.60;;;17.63;;
19810;SDS011;10065;49.632;8.346;2022-12-18T03:05:56;54.07;;;17.40;;
19810;SDS011;10065;49.632;8.346;2022-12-18T03:08:29;43.27;;;15.43;;
19810;SDS011;10065;49.632;8.346;2022-12-18T03:11:03;44.53;;;16.93;;
19810;SDS011;10065;49.632;8.346;2022-12-18T03:13:36;47.17;;;17.30;;
19810;SDS011;10065;49.632;8.346;2022-12-18T03:16:08;40.53;;;15.53;;
19810;SDS011;10065;49.632;8.346;2022-12-18T03:18:39;36.03;;;14.10;;
19810;SDS011;10065;49.632;8.346;2022-12-18T03:21:11;41.83;;;14.93;;
19810;SDS011;10065;49.632;8.346;2022-12-18T03:23:44;49.00;;;17.17;;
19810;SDS011;10065;49.632;8.346;2022-12-18T03:26:15;48.17;;;16.87;;
19810;SDS011;10065;49.632;8.346;2022-12-18T03:28:49;46.23;;;17.03;;
19810;SDS011;10065;49.632;8.346;2022-12-18T03:31:20;46.13;;;15.80;;
19810;SDS011;10065;49.632;8.346;2022-12-18T03:33:51;44.57;;;16.33;;
19810;SDS011;10065;49.632;8.346;2022-12-18T03:36:20;45.10;;;15.77;;
19810;SDS011;10065;49.632;8.346;2022-12-18T03:38:50;50.20;;;16.40;;
19810;SDS011;10065;49.632;8.346;2022-12-18T03:41:19;44.30;;;16.30;;
19810;SDS011;10065;49.632;8.346;2022-12-18T03:44:03;40.97;;;16.47;;
19810;SDS011;10065;49.632;8.346;2022-12-18T03:46:39;39.40;;;15.43;;
19810;SDS011;10065;49.632;8.346;2022-12-18T03:49:13;44.37;;;16.47;;
19810;SDS011;10065;49.632;8.346;2022-12-18T03:51:50;41.10;;;16.43;;
19810;SDS011;10065;49.632;8.346;2022-12-18T03:54:34;44.17;;;15.80;;
19810;SDS011;10065;49.632;8.346;2022-12-18T03:57:04;40.67;;;17.00;;
19810;SDS011;10065;49.632;8.346;2022-12-18T03:59:38;44.03;;;16.30;;
19810;SDS011;10065;49.632;8.346;2022-12-18T04:02:07;42.80;;;15.13;;
19810;SDS011;10065;49.632;8.346;2022-12-18T04:04:37;47.53;;;17.27;;
19810;SDS011;10065;49.632;8.346;2022-12-18T04:07:07;42.07;;;16.23;;
19810;SDS011;10065;49.632;8.346;2022-12-18T04:09:35;46.57;;;17.97;;
19810;SDS011;10065;49.632;8.346;2022-12-18T04:12:04;40.00;;;16.13;;
19810;SDS011;10065;49.632;8.346;2022-12-18T04:14:32;44.33;;;16.10;;
19810;SDS011;10065;49.632;8.346;2022-12-18T04:17:03;45.37;;;17.03;;
19810;SDS011;10065;49.632;8.346;2022-12-18T04:19:31;50.33;;;18.30;;
19810;SDS011;10065;49.632;8.346;2022-12-18T04:21:59;41.53;;;16.67;;
19810;SDS011;10065;49.632;8.346;2022-12-18T04:24:26;45.57;;;17.47;;
19810;SDS011;10065;49.632;8.346;2022-12-18T04:26:54;48.33;;;16.73;;
19810;SDS011;10065;49.632;8.346;2022-12-18T04:29:22;51.67;;;16.77;;
19810;SDS011;10065;49.632;8.346;2022-12-18T04:31:49;47.37;;;16.93;;
19810;SDS011;10065;49.632;8.346;2022-12-18T04:34:18;42.43;;;17.20;;
19810;SDS011;10065;49.632;8.346;2022-12-18T04:36:46;38.73;;;15.53;;
19810;SDS011;10065;49.632;8.346;2022-12-18T04:39:14;39.80;;;16.03;;
19810;SDS011;10065;49.632;8.346;2022-12-18T04:41:45;41.87;;;15.90;;
19810;SDS011;10065;49.632;8.346;2022-12-18T04:44:12;39.47;;;14.87;;
19810;SDS011;10065;49.632;8.346;2022-12-18T04:46:41;45.10;;;14.47;;
19810;SDS011;10065;49.632;8.346;2022-12-18T04:49:09;40.13;;;15.50;;
19810;SDS011;10065;49.632;8.346;2022-12-18T04:51:38;44.23;;;16.87;;
19810;SDS011;10065;49.632;8.346;2022-12-18T04:54:06;48.50;;;16.13;;
19810;SDS011;10065;49.632;8.346;2022-12-18T04:56:34;41.67;;;14.73;;
19810;SDS011;10065;49.632;8.346;2022-12-18T04:59:01;39.67;;;15.77;;
19810;SDS011;10065;49.632;8.346;2022-12-18T05:01:29;50.53;;;17.30;;
19810;SDS011;10065;49.632;8.346;2022-12-18T05:04:00;38.83;;;16.03;;
19810;SDS011;10065;49.632;8.346;2022-12-18T05:06:28;39.53;;;14.73;;
19810;SDS011;10065;49.632;8.346;2022-12-18T05:08:57;38.80;;;14.23;;
19810;SDS011;10065;49.632;8.346;2022-12-18T05:11:25;35.77;;;13.60;;
19810;SDS011;10065;49.632;8.346;2022-12-18T05:13:53;40.30;;;15.37;;
19810;SDS011;10065;49.632;8.346;2022-12-18T05:16:24;37.60;;;14.73;;
19810;SDS011;10065;49.632;8.346;2022-12-18T05:18:51;42.10;;;17.17;;
19810;SDS011;10065;49.632;8.346;2022-12-18T05:21:19;44.40;;;15.70;;
19810;SDS011;10065;49.632;8.346;2022-12-18T05:23:47;43.70;;;15.37;;
19810;SDS011;10065;49.632;8.346;2022-12-18T05:26:16;39.17;;;16.00;;
19810;SDS011;10065;49.632;8.346;2022-12-18T05:28:45;42.63;;;15.40;;
19810;SDS011;10065;49.632;8.346;2022-12-18T05:31:17;49.17;;;18.20;;
19810;SDS011;10065;49.632;8.346;2022-12-18T05:33:44;47.33;;;17.33;;
19810;SDS011;10065;49.632;8.346;2022-12-18T05:36:18;47.87;;;17.77;;
19810;SDS011;10065;49.632;8.346;2022-12-18T05:38:46;46.03;;;16.57;;
19810;SDS011;10065;49.632;8.346;2022-12-18T05:41:13;43.27;;;15.67;;
19810;SDS011;10065;49.632;8.346;2022-12-18T05:43:43;41.63;;;15.50;;
19810;SDS011;10065;49.632;8.346;2022-12-18T05:46:11;44.00;;;16.10;;
19810;SDS011;10065;49.632;8.346;2022-12-18T05:48:40;38.87;;;16.07;;
19810;SDS011;10065;49.632;8.346;2022-12-18T05:51:09;48.10;;;16.80;;
19810;SDS011;10065;49.632;8.346;2022-12-18T05:53:38;41.17;;;15.43;;
19810;SDS011;10065;49.632;8.346;2022-12-18T05:56:07;41.17;;;14.53;;
19810;SDS011;10065;49.632;8.346;2022-12-18T05:58:37;47.80;;;17.30;;
19810;SDS011;10065;49.632;8.346;2022-12-18T06:01:07;43.50;;;15.83;;
19810;SDS011;10065;49.632;8.346;2022-12-18T06:03:37;46.43;;;16.50;;
19810;SDS011;10065;49.632;8.346;2022-12-18T06:06:12;43.50;;;16.03;;
19810;SDS011;10065;49.632;8.346;2022-12-18T06:08:41;41.97;;;15.93;;
19810;SDS011;10065;49.632;8.346;2022-12-18T06:11:12;52.60;;;17.53;;
19810;SDS011;10065;49.632;8.346;2022-12-18T06:13:39;45.93;;;17.73;;
19810;SDS011;10065;49.632;8.346;2022-12-18T06:16:09;43.70;;;15.97;;
19810;SDS011;10065;49.632;8.346;2022-12-18T06:18:37;43.57;;;16.57;;
19810;SDS011;10065;49.632;8.346;2022-12-18T06:21:05;44.73;;;15.93;;
19810;SDS011;10065;49.632;8.346;2022-12-18T06:23:33;49.70;;;17.20;;
19810;SDS011;10065;49.632;8.346;2022-12-18T06:26:05;39.23;;;15.87;;
19810;SDS011;10065;49.632;8.346;2022-12-18T06:28:33;45.57;;;16.20;;
19810;SDS011;10065;49.632;8.346;2022-12-18T06:31:02;50.43;;;16.00;;
19810;SDS011;10065;49.632;8.346;2022-12-18T06:33:32;37.53;;;15.83;;
19810;SDS011;10065;49.632;8.346;2022-12-18T06:36:00;41.70;;;15.03;;
19810;SDS011;10065;49.632;8.346;2022-12-18T06:38:29;41.40;;;16.23;;
19810;SDS011;10065;49.632;8.346;2022-12-18T06:40:57;50.37;;;16.53;;
19810;SDS011;10065;49.632;8.346;2022-12-18T06:43:24;45.67;;;15.73;;
19810;SDS011;10065;49.632;8.346;2022-12-18T06:45:57;51.17;;;17.57;;
19810;SDS011;10065;49.632;8.346;2022-12-18T06:48:29;44.50;;;15.40;;
19810;SDS011;10065;49.632;8.346;2022-12-18T06:50:58;41.10;;;15.13;;
19810;SDS011;10065;49.632;8.346;2022-12-18T06:53:26;36.27;;;15.87;;
19810;SDS011;10065;49.632;8.346;2022-12-18T06:55:59;42.17;;;16.00;;
19810;SDS011;10065;49.632;8.346;2022-12-18T06:58:35;35.27;;;14.60;;
19810;SDS011;10065;49.632;8.346;2022-12-18T07:01:03;37.07;;;14.40;;
19810;SDS011;10065;49.632;8.346;2022-12-18T07:03:33;39.30;;;14.20;;
19810;SDS011;10065;49.632;8.346;2022-12-18T07:06:02;38.80;;;14.00;;
19810;SDS011;10065;49.632;8.346;2022-12-18T07:08:30;44.50;;;16.43;;
19810;SDS011;10065;49.632;8.346;2022-12-18T07:10:58;45.43;;;16.10;;
19810;SDS011;10065;49.632;8.346;2022-12-18T07:13:26;39.70;;;14.50;;
19810;SDS011;10065;49.632;8.346;2022-12-18T07:15:54;42.77;;;15.07;;
19810;SDS011;10065;49.632;8.346;2022-12-18T07:18:22;36.47;;;14.20;;
19810;SDS011;10065;49.632;8.346;2022-12-18T07:20:49;40.37;;;14.93;;
19810;SDS011;10065;49.632;8.346;2022-12-18T07:23:18;43.97;;;14.87;;
19810;SDS011;10065;49.632;8.346;2022-12-18T07:25:46;42.37;;;15.10;;
19810;SDS011;10065;49.632;8.346;2022-12-18T07:28:15;45.07;;;15.60;;
19810;SDS011;10065;49.632;8.346;2022-12-18T07:30:43;35.97;;;14.73;;
19810;SDS011;10065;49.632;8.346;2022-12-18T07:33:10;39.73;;;15.83;;
19810;SDS011;10065;49.632;8.346;2022-12-18T07:35:38;41.77;;;15.03;;
19810;SDS011;10065;49.632;8.346;2022-12-18T07:38:06;39.30;;;14.67;;
19810;SDS011;10065;49.632;8.346;2022-12-18T07:40:35;43.43;;;15.90;;
19810;SDS011;10065;49.632;8.346;2022-12-18T07:43:05;48.80;;;17.67;;
19810;SDS011;10065;49.632;8.346;2022-12-18T07:45:33;42.27;;;15.50;;
19810;SDS011;10065;49.632;8.346;2022-12-18T07:48:00;42.70;;;15.43;;
19810;SDS011;10065;49.632;8.346;2022-12-18T07:50:28;43.77;;;15.63;;
19810;SDS011;10065;49.632;8.346;2022-12-18T07:52:56;39.90;;;15.43;;
19810;SDS011;10065;49.632;8.346;2022-12-18T07:55:23;43.37;;;16.43;;
19810;SDS011;10065;49.632;8.346;2022-12-18T07:57:53;40.07;;;14.57;;
19810;SDS011;10065;49.632;8.346;2022-12-18T08:00:26;44.37;;;14.70;;
19810;SDS011;10065;49.632;8.346;2022-12-18T08:02:54;40.40;;;16.17;;
19810;SDS011;10065;49.632;8.346;2022-12-18T08:05:22;47.43;;;15.57;;
19810;SDS011;10065;49.632;8.346;2022-12-18T08:07:49;44.20;;;16.23;;
19810;SDS011;10065;49.632;8.346;2022-12-18T08:10:17;42.53;;;15.40;;
19810;SDS011;10065;49.632;8.346;2022-12-18T08:12:48;44.73;;;16.50;;
19810;SDS011;10065;49.632;8.346;2022-12-18T08:15:17;36.73;;;15.93;;
19810;SDS011;10065;49.632;8.346;2022-12-18T08:17:45;41.77;;;16.30;;
19810;SDS011;10065;49.632;8.346;2022-12-18T08:20:13;43.53;;;16.50;;
19810;SDS011;10065;49.632;8.346;2022-12-18T08:22:41;41.10;;;16.43;;
19810;SDS011;10065;49.632;8.346;2022-12-18T08:25:09;45.80;;;17.57;;
19810;SDS011;10065;49.632;8.346;2022-12-18T08:27:37;45.00;;;17.00;;
19810;SDS011;10065;49.632;8.346;2022-12-18T08:30:06;43.23;;;16.80;;
19810;SDS011;10065;49.632;8.346;2022-12-18T08:32:36;42.00;;;15.97;;
19810;SDS011;10065;49.632;8.346;2022-12-18T08:35:06;43.97;;;16.90;;
19810;SDS011;10065;49.632;8.346;2022-12-18T08:37:35;45.07;;;17.63;;
19810;SDS011;10065;49.632;8.346;2022-12-18T08:40:04;48.10;;;17.87;;
19810;SDS011;10065;49.632;8.346;2022-12-18T08:42:32;39.77;;;17.43;;
19810;SDS011;10065;49.632;8.346;2022-12-18T08:45:18;48.13;;;16.20;;
19810;SDS011;10065;49.632;8.346;2022-12-18T08:47:47;44.20;;;16.77;;
19810;SDS011;10065;49.632;8.346;2022-12-18T08:50:14;43.73;;;17.53;;
19810;SDS011;10065;49.632;8.346;2022-12-18T08:52:42;47.20;;;18.13;;
19810;SDS011;10065;49.632;8.346;2022-12-18T08:55:10;45.57;;;17.77;;
19810;SDS011;10065;49.632;8.346;2022-12-18T08:57:38;45.80;;;17.70;;
19810;SDS011;10065;49.632;8.346;2022-12-18T09:00:06;43.67;;;17.20;;
19810;SDS011;10065;49.632;8.346;2022-12-18T09:02:35;44.90;;;17.97;;
19810;SDS011;10065;49.632;8.346;2022-12-18T09:05:04;46.03;;;18.63;;
19810;SDS011;10065;49.632;8.346;2022-12-18T09:07:35;45.90;;;19.13;;
19810;SDS011;10065;49.632;8.346;2022-12-18T09:10:05;46.23;;;18.13;;
19810;SDS011;10065;49.632;8.346;2022-12-18T09:12:33;47.77;;;19.10;;
19810;SDS011;10065;49.632;8.346;2022-12-18T09:15:01;48.73;;;18.40;;
19810;SDS011;10065;49.632;8.346;2022-12-18T09:17:29;44.43;;;18.63;;
19810;SDS011;10065;49.632;8.346;2022-12-18T09:19:57;46.63;;;19.90;;
19810;SDS011;10065;49.632;8.346;2022-12-18T09:22:26;53.83;;;20.23;;
19810;SDS011;10065;49.632;8.346;2022-12-18T09:24:54;49.43;;;19.00;;
19810;SDS011;10065;49.632;8.346;2022-12-18T09:27:22;44.80;;;18.23;;
19810;SDS011;10065;49.632;8.346;2022-12-18T09:29:50;48.30;;;17.47;;
19810;SDS011;10065;49.632;8.346;2022-12-18T09:32:18;47.70;;;18.13;;
19810;SDS011;10065;49.632;8.346;2022-12-18T09:34:47;38.20;;;16.77;;
19810;SDS011;10065;49.632;8.346;2022-12-18T09:37:15;39.50;;;16.97;;
19810;SDS011;10065;49.632;8.346;2022-12-18T09:39:44;45.40;;;19.37;;
19810;SDS011;10065;49.632;8.346;2022-12-18T09:42:14;41.00;;;18.30;;
19810;SDS011;10065;49.632;8.346;2022-12-18T09:44:48;43.67;;;18.17;;
19810;SDS011;10065;49.632;8.346;2022-12-18T09:47:18;52.73;;;18.80;;
19810;SDS011;10065;49.632;8.346;2022-12-18T09:49:51;40.50;;;17.10;;
19810;SDS011;10065;49.632;8.346;2022-12-18T09:52:24;40.70;;;18.37;;
19810;SDS011;10065;49.632;8.346;2022-12-18T09:54:56;40.67;;;16.70;;
19810;SDS011;10065;49.632;8.346;2022-12-18T09:57:28;46.00;;;17.87;;
19810;SDS011;10065;49.632;8.346;2022-12-18T10:00:02;42.30;;;18.37;;
19810;SDS011;10065;49.632;8.346;2022-12-18T10:02:33;42.47;;;18.63;;
19810;SDS011;10065;49.632;8.346;2022-12-18T10:05:09;44.13;;;17.67;;
19810;SDS011;10065;49.632;8.346;2022-12-18T10:07:43;44.07;;;17.43;;
19810;SDS011;10065;49.632;8.346;2022-12-18T10:10:25;44.17;;;18.10;;
19810;SDS011;10065;49.632;8.346;2022-12-18T10:13:00;36.37;;;16.63;;
19810;SDS011;10065;49.632;8.346;2022-12-18T10:15:36;45.30;;;24.30;;
19810;SDS011;10065;49.632;8.346;2022-12-18T10:18:15;40.53;;;19.63;;
19810;SDS011;10065;49.632;8.346;2022-12-18T10:20:50;44.87;;;19.30;;
19810;SDS011;10065;49.632;8.346;2022-12-18T10:23:21;38.77;;;17.43;;
19810;SDS011;10065;49.632;8.346;2022-12-18T10:25:58;48.13;;;19.23;;
19810;SDS011;10065;49.632;8.346;2022-12-18T10:28:29;48.13;;;19.50;;
19810;SDS011;10065;49.632;8.346;2022-12-18T10:30:58;44.50;;;18.60;;
19810;SDS011;10065;49.632;8.346;2022-12-18T10:33:28;42.70;;;18.93;;
19810;SDS011;10065;49.632;8.346;2022-12-18T10:35:58;40.13;;;17.17;;
19810;SDS011;10065;49.632;8.346;2022-12-18T10:38:28;41.13;;;18.23;;
19810;SDS011;10065;49.632;8.346;2022-12-18T10:40:59;47.23;;;19.63;;
19810;SDS011;10065;49.632;8.346;2022-12-18T10:43:29;45.47;;;18.60;;
19810;SDS011;10065;49.632;8.346;2022-12-18T10:46:01;43.77;;;19.47;;
19810;SDS011;10065;49.632;8.346;2022-12-18T10:48:36;41.60;;;20.63;;
19810;SDS011;10065;49.632;8.346;2022-12-18T10:51:19;41.87;;;19.43;;
19810;SDS011;10065;49.632;8.346;2022-12-18T10:53:56;45.17;;;20.43;;
19810;SDS011;10065;49.632;8.346;2022-12-18T10:56:31;41.80;;;20.40;;
19810;SDS011;10065;49.632;8.346;2022-12-18T10:59:05;43.83;;;20.57;;
19810;SDS011;10065;49.632;8.346;2022-12-18T11:01:47;41.90;;;21.73;;
19810;SDS011;10065;49.632;8.346;2022-12-18T11:04:25;43.70;;;21.57;;
19810;SDS011;10065;49.632;8.346;2022-12-18T11:06:54;45.43;;;21.03;;
19810;SDS011;10065;49.632;8.346;2022-12-18T11:09:26;44.70;;;22.13;;
19810;SDS011;10065;49.632;8.346;2022-12-18T11:11:58;45.37;;;22.00;;
19810;SDS011;10065;49.632;8.346;2022-12-18T11:14:28;43.03;;;21.03;;
19810;SDS011;10065;49.632;8.346;2022-12-18T11:17:03;46.67;;;22.97;;
19810;SDS011;10065;49.632;8.346;2022-12-18T11:19:54;45.23;;;21.90;;
19810;SDS011;10065;49.632;8.346;2022-12-18T11:22:25;44.97;;;23.63;;
19810;SDS011;10065;49.632;8.346;2022-12-18T11:24:55;49.73;;;22.70;;
19810;SDS011;10065;49.632;8.346;2022-12-18T11:27:50;41.63;;;21.40;;
19810;SDS011;10065;49.632;8.346;2022-12-18T11:30:23;47.10;;;23.30;;
19810;SDS011;10065;49.632;8.346;2022-12-18T11:32:53;50.37;;;24.00;;
19810;SDS011;10065;49.632;8.346;2022-12-18T11:35:32;46.47;;;21.90;;
19810;SDS011;10065;49.632;8.346;2022-12-18T11:38:06;40.20;;;22.17;;
19810;SDS011;10065;49.632;8.346;2022-12-18T11:40:45;42.77;;;21.47;;
19810;SDS011;10065;49.632;8.346;2022-12-18T11:43:20;44.53;;;22.10;;
19810;SDS011;10065;49.632;8.346;2022-12-18T11:45:58;47.13;;;22.23;;
19810;SDS011;10065;49.632;8.346;2022-12-18T11:48:30;48.27;;;21.77;;
19810;SDS011;10065;49.632;8.346;2022-12-18T11:51:02;48.07;;;23.10;;
19810;SDS011;10065;49.632;8.346;2022-12-18T11:53:32;48.70;;;22.37;;
19810;SDS011;10065;49.632;8.346;2022-12-18T11:56:07;48.50;;;22.90;;
19810;SDS011;10065;49.632;8.346;2022-12-18T11:58:49;49.60;;;23.90;;
19810;SDS011;10065;49.632;8.346;2022-12-18T12:01:26;50.13;;;22.90;;
19810;SDS011;10065;49.632;8.346;2022-12-18T12:04:20;52.70;;;22.93;;
19810;SDS011;10065;49.632;8.346;2022-12-18T12:06:59;51.40;;;21.93;;
19810;SDS011;10065;49.632;8.346;2022-12-18T12:09:38;48.77;;;23.27;;
19810;SDS011;10065;49.632;8.346;2022-12-18T12:12:23;52.40;;;22.33;;
19810;SDS011;10065;49.632;8.346;2022-12-18T12:15:21;52.30;;;22.00;;
19810;SDS011;10065;49.632;8.346;2022-12-18T12:17:58;48.57;;;22.17;;
19810;SDS011;10065;49.632;8.346;2022-12-18T12:20:41;54.10;;;23.43;;
19810;SDS011;10065;49.632;8.346;2022-12-18T12:23:18;50.33;;;23.17;;
19810;SDS011;10065;49.632;8.346;2022-12-18T12:25:55;54.50;;;23.37;;
19810;SDS011;10065;49.632;8.346;2022-12-18T12:28:31;55.50;;;23.90;;
19810;SDS011;10065;49.632;8.346;2022-12-18T12:31:32;52.30;;;22.33;;
19810;SDS011;10065;49.632;8.346;2022-12-18T12:34:17;51.17;;;23.23;;
19810;SDS011;10065;49.632;8.346;2022-12-18T12:36:58;51.37;;;21.23;;
19810;SDS011;10065;49.632;8.346;2022-12-18T12:39:41;54.13;;;22.07;;
19810;SDS011;10065;49.632;8.346;2022-12-18T12:42:18;55.47;;;24.03;;
19810;SDS011;10065;49.632;8.346;2022-12-18T12:45:19;51.73;;;21.43;;
19810;SDS011;10065;49.632;8.346;2022-12-18T12:47:52;53.60;;;22.50;;
19810;SDS011;10065;49.632;8.346;2022-12-18T12:50:22;53.83;;;21.67;;
19810;SDS011;10065;49.632;8.346;2022-12-18T12:52:54;51.80;;;21.73;;
19810;SDS011;10065;49.632;8.346;2022-12-18T12:55:25;45.13;;;22.03;;
19810;SDS011;10065;49.632;8.346;2022-12-18T12:57:57;54.80;;;24.53;;
19810;SDS011;10065;49.632;8.346;2022-12-18T13:00:36;52.67;;;21.67;;
19810;SDS011;10065;49.632;8.346;2022-12-18T13:03:14;51.10;;;21.73;;
19810;SDS011;10065;49.632;8.346;2022-12-18T13:05:52;57.50;;;23.60;;
19810;SDS011;10065;49.632;8.346;2022-12-18T13:08:29;47.57;;;21.50;;
19810;SDS011;10065;49.632;8.346;2022-12-18T13:11:12;53.67;;;22.90;;
19810;SDS011;10065;49.632;8.346;2022-12-18T13:14:39;53.43;;;21.73;;
19810;SDS011;10065;49.632;8.346;2022-12-18T13:17:15;53.90;;;22.33;;
19810;SDS011;10065;49.632;8.346;2022-12-18T13:19:49;60.37;;;23.73;;
19810;SDS011;10065;49.632;8.346;2022-12-18T13:22:21;53.20;;;21.37;;
19810;SDS011;10065;49.632;8.346;2022-12-18T13:24:50;52.30;;;22.90;;
19810;SDS011;10065;49.632;8.346;2022-12-18T13:36:38;53.50;;;22.10;;
19810;SDS011;10065;49.632;8.346;2022-12-18T13:45:35;59.63;;;22.60;;
19810;SDS011;10065;49.632;8.346;2022-12-18T13:48:12;50.40;;;22.97;;
19810;SDS011;10065;49.632;8.346;2022-12-18T13:50:46;55.77;;;22.60;;
19810;SDS011;10065;49.632;8.346;2022-12-18T13:53:19;56.97;;;23.40;;
19810;SDS011;10065;49.632;8.346;2022-12-18T13:55:52;60.00;;;23.60;;
19810;SDS011;10065;49.632;8.346;2022-12-18T13:58:21;54.50;;;22.33;;
19810;SDS011;10065;49.632;8.346;2022-12-18T14:00:49;55.53;;;22.77;;
19810;SDS011;10065;49.632;8.346;2022-12-18T14:03:20;50.20;;;22.73;;
19810;SDS011;10065;49.632;8.346;2022-12-18T14:05:54;56.27;;;22.60;;
19810;SDS011;10065;49.632;8.346;2022-12-18T14:08:29;58.27;;;23.90;;
19810;SDS011;10065;49.632;8.346;2022-12-18T14:11:00;58.07;;;23.07;;
19810;SDS011;10065;49.632;8.346;2022-12-18T14:13:31;48.33;;;20.50;;
19810;SDS011;10065;49.632;8.346;2022-12-18T14:16:01;58.70;;;24.10;;
19810;SDS011;10065;49.632;8.346;2022-12-18T14:18:38;55.70;;;22.60;;
19810;SDS011;10065;49.632;8.346;2022-12-18T14:21:21;62.70;;;24.97;;
19810;SDS011;10065;49.632;8.346;2022-12-18T14:24:04;54.13;;;21.27;;
19810;SDS011;10065;49.632;8.346;2022-12-18T14:26:33;57.23;;;23.10;;
19810;SDS011;10065;49.632;8.346;2022-12-18T14:29:14;58.67;;;23.17;;
19810;SDS011;10065;49.632;8.346;2022-12-18T14:31:50;57.47;;;23.87;;
19810;SDS011;10065;49.632;8.346;2022-12-18T14:34:42;54.63;;;23.17;;
19810;SDS011;10065;49.632;8.346;2022-12-18T14:37:10;60.27;;;24.03;;
19810;SDS011;10065;49.632;8.346;2022-12-18T14:39:44;59.93;;;25.17;;
19810;SDS011;10065;49.632;8.346;2022-12-18T14:42:23;59.87;;;25.03;;
19810;SDS011;10065;49.632;8.346;2022-12-18T14:47:56;57.70;;;23.63;;
19810;SDS011;10065;49.632;8.346;2022-12-18T14:50:24;59.33;;;23.57;;
19810;SDS011;10065;49.632;8.346;2022-12-18T14:52:56;58.60;;;24.67;;
19810;SDS011;10065;49.632;8.346;2022-12-18T14:55:26;56.37;;;24.27;;
19810;SDS011;10065;49.632;8.346;2022-12-18T14:57:59;62.67;;;26.10;;
19810;SDS011;10065;49.632;8.346;2022-12-18T15:00:27;58.20;;;25.50;;
19810;SDS011;10065;49.632;8.346;2022-12-18T15:02:55;68.23;;;27.17;;
19810;SDS011;10065;49.632;8.346;2022-12-18T15:05:27;66.50;;;26.47;;
19810;SDS011;10065;49.632;8.346;2022-12-18T15:07:57;59.03;;;25.43;;